Maine-Soroa, Niger
Current Conditions -  °F | °C
As of 11:00 AM on Saturday 22 Nov 2014 (Local Time) from FTTJ Reporting Station
Clear Clear  
Wind Chill: 91°   Ceiling: Unl
Heat Index: 91°   Visibility: 5mi
Dew Point: 37°   Wind: 15mph
Humidity: 15%   Direction: 40°NE
Pressure: 29.97"   Gusts: NA
Location:  13.21°N, 12.03°E
Report Text: FTTJ 221000Z 04013KT 010V070 8000 NSC 33/03 Q1015 NOSIG
Loading
Personal Weather Stations






























Interactive Weather Map New forecast layout! Learn more

10-Day Weather Forecast

Advertisements
Track Severe Weather on mobile